• Join FlightAware (Why Join?)
  • Login
  • US Flag 
04:57AM EDT


 

Airport Tracker/Info


-or-


 

Live Flight TrackerFlight Track Log ✈ CHQ9262 ✈ 04-Feb-2012 ✈ KUNV - KCID

Flight Track Log - Related Links

Times and Time Zones

All times are in EST time to prevent confusion due to time zone crossing. See the CHQ9262 flight status page for this flight to view local times or setup timezone preferences in your user account.

Time Position Orientation Groundspeed Altitude Reporting Facility
EST Latitude Longitude Course Direction KTS MPH feet Rate Location/Type
01:45PM 40.8949 -77.9513 135° Southeast  Level FlightAware Approximate
01:47PM 40.8550 -77.8992 313° West 420 483 3,300  Level New York Center
01:48PM 40.9089 -77.9764 285° West 333 383 6,400 3,300 Climbing New York Center
01:49PM 40.9264 -78.0633 278° West 267 307 9,800 1,740 Climbing New York Center
01:50PM 40.9369 -78.1606 277° West 264 304 10,000 60 Climbing New York Center
01:50PM 40.9408 -78.2025 284° West 272 313 9,900 360 Descending Cleveland Center
01:51PM 40.9619 -78.3172 278° West 316 364 10,500 1,200 Climbing Cleveland Center
01:52PM 40.9747 -78.4325 278° West 322 371 12,400 1,740 Climbing Cleveland Center
01:53PM 40.9872 -78.5475 281° West 322 371 14,000 1,620 Climbing Cleveland Center
01:54PM 41.0036 -78.6625 279° West 327 376 15,700 1,380 Climbing Cleveland Center
01:55PM 41.0183 -78.7833 279° West 327 376 16,800 1,020 Climbing Cleveland Center
01:56PM 41.0325 -78.9014 280° West 332 382 17,800 960 Climbing Cleveland Center
01:57PM 41.0489 -79.0219 277° West 332 382 18,800 900 Climbing Cleveland Center
01:58PM 41.0608 -79.1456 277° West 332 382 19,700 1,020 Climbing Cleveland Center
01:59PM 41.0728 -79.2667 280° West 337 388 20,900 1,200 Climbing Cleveland Center
02:00PM 41.0886 -79.3875 277° West 337 388 22,100 1,080 Climbing Cleveland Center
02:01PM 41.1003 -79.5114 277° West 337 388 23,100 960 Climbing Cleveland Center
02:02PM 41.1119 -79.6350 277° West 337 388 24,100 900 Climbing Cleveland Center
02:03PM 41.1233 -79.7589 278° West 337 388 25,000 900 Climbing Cleveland Center
02:04PM 41.1344 -79.8692 279° West 337 388 25,900 900 Climbing Cleveland Center
02:05PM 41.1497 -80.0042 278° West 337 388 26,800 960 Climbing Cleveland Center
02:06PM 41.1628 -80.1253 281° West 337 388 27,900 1,140 Climbing Cleveland Center
02:07PM 41.1778 -80.2328 276° West 331 381 29,100 1,020 Climbing Cleveland Center
02:08PM 41.1883 -80.3569 278° West 325 374 30,000 840 Climbing Cleveland Center
02:09PM 41.2011 -80.4756 277° West 325 374 30,800 780 Climbing Cleveland Center
02:10PM 41.2117 -80.5942 276° West 325 374 31,600 600 Climbing Cleveland Center
02:11PM 41.2219 -80.7156 276° West 336 387 32,000 180 Climbing Cleveland Center
02:12PM 41.2322 -80.8372 278° West 341 392 32,000  Level Cleveland Center
02:13PM 41.2444 -80.9586 278° West 336 387 32,000  Level Cleveland Center
02:14PM 41.2564 -81.0775 277° West 330 380 32,000  Level Cleveland Center
02:15PM 41.2664 -81.1881 277° West 335 386 32,000  Level Cleveland Center
02:16PM 41.2781 -81.3069 279° West 330 380 32,000  Level Cleveland Center
02:17PM 41.2919 -81.4289 277° West 330 380 32,000  Level Cleveland Center
02:18PM 41.3033 -81.5478 276° West 330 380 32,000  Level Cleveland Center
02:19PM 41.3128 -81.6694 276° West 330 380 32,000  Level Cleveland Center
02:20PM 41.3219 -81.7914 279° West 330 380 32,000  Level Cleveland Center
02:21PM 41.3353 -81.9106 276° West 330 380 32,000  Level Cleveland Center
02:22PM 41.3442 -82.0325 276° West 335 386 32,000  Level Cleveland Center
02:23PM 41.3531 -82.1542 274° West 335 386 32,000  Level Cleveland Center
02:24PM 41.3594 -82.2761 275° West 335 386 32,000  Level Cleveland Center
02:25PM 41.3681 -82.3981 274° West 327 376 32,000  Level Cleveland Center
02:26PM 41.3744 -82.5172 277° West 335 386 32,000  Level Cleveland Center
02:27PM 41.3850 -82.6394 274° West 329 379 32,000  Level Cleveland Center
02:28PM 41.3908 -82.7614 276° West 329 379 32,000  Level Cleveland Center
02:29PM 41.4008 -82.8947 275° West 329 379 32,000  Level Cleveland Center
02:30PM 41.4086 -83.0167 274° West 329 379 32,000  Level Cleveland Center
02:31PM 41.4144 -83.1361 272° West 329 379 32,000  Level Cleveland Center
02:32PM 41.4181 -83.2553 272° West 323 372 32,000  Level Cleveland Center
02:33PM 41.4214 -83.3772 275° West 330 380 32,000  Level Cleveland Center
02:34PM 41.4289 -83.4967 273° West 330 380 32,000  Level Cleveland Center
02:35PM 41.4339 -83.6217 272° West 335 386 32,000  Level Cleveland Center
02:36PM 41.4367 -83.7464 275° West 335 386 32,000  Level Cleveland Center
02:37PM 41.4456 -83.8742 273° West 335 386 32,000  Level Cleveland Center
02:38PM 41.4503 -83.9992 273° West 341 392 32,000  Level Cleveland Center
02:39PM 41.4553 -84.1103 276° West 348 400 32,000  Level Cleveland Center
02:41PM 41.4708 -84.3247 273° West 348 400 32,000  Level Chicago Center
02:42PM 41.4758 -84.4408 271° West 343 395 32,000  Level Chicago Center
02:43PM 41.4769 -84.5656 272° West 343 395 32,000  Level Chicago Center
02:44PM 41.4800 -84.6903 273° West 343 395 32,000  Level Chicago Center
02:45PM 41.4853 -84.8200 274° West 348 400 32,000  Level Chicago Center
02:46PM 41.4922 -84.9444 273° West 348 400 32,000  Level Chicago Center
02:47PM 41.4975 -85.0856 273° West 348 400 32,000  Level Chicago Center
02:48PM 41.5022 -85.2128 272° West 348 400 32,000  Level Chicago Center
02:49PM 41.5050 -85.3431 274° West 348 400 32,000  Level Chicago Center
02:50PM 41.5114 -85.4731 273° West 348 400 32,000  Level Chicago Center
02:51PM 41.5158 -85.6058 272° West 353 406 32,000  Level Chicago Center
02:52PM 41.5194 -85.7194 271° West 348 400 32,000  Level Chicago Center
02:53PM 41.5214 -85.8497 272° West 348 400 32,000  Level Chicago Center
02:54PM 41.5253 -85.9769 272° West 348 400 32,000  Level Chicago Center
02:55PM 41.5289 -86.1044 276° West 348 400 32,000  Level Chicago Center
02:56PM 41.5389 -86.2372 278° West 348 400 32,000  Level Chicago Center
02:57PM 41.5531 -86.3781 278° West 348 400 32,000  Level Chicago Center
02:58PM 41.5669 -86.5078 277° West 353 406 32,000  Level Chicago Center
02:59PM 41.5783 -86.6350 276° West 353 406 32,000  Level Chicago Center
03:00PM 41.5872 -86.7514 278° West 348 400 32,000  Level Chicago Center
03:01PM 41.6006 -86.8814 275° West 348 400 32,000  Level Chicago Center
03:02PM 41.6097 -87.0225 275° West 348 400 32,000  Level Chicago Center
03:03PM 41.6186 -87.1528 275° West 354 407 32,000  Level Chicago Center
03:04PM 41.6272 -87.2803 275° West 354 407 32,000  Level Chicago Center
03:05PM 41.6358 -87.4106 277° West 354 407 32,000  Level Chicago Center
03:06PM 41.6483 -87.5436 275° West 354 407 32,000  Level Chicago Center
03:07PM 41.6567 -87.6742 275° West 354 407 32,000  Level Chicago Center
03:08PM 41.6647 -87.8072 275° West 354 407 32,000  Level Chicago Center
03:09PM 41.6728 -87.9406 276° West 359 413 32,000  Level Chicago Center
03:10PM 41.6825 -88.0711 276° West 359 413 32,000  Level Chicago Center
03:11PM 41.6922 -88.2042 276° West 359 413 32,000  Level Chicago Center
03:12PM 41.7019 -88.3403 276° West 364 419 32,000  Level Chicago Center
03:13PM 41.7114 -88.4708 276° West 364 419 32,000  Level Chicago Center
03:14PM 41.7206 -88.5933 275° West 369 425 32,000  Level Chicago Center
03:15PM 41.7297 -88.7267 275° West 369 425 32,000  Level Chicago Center
03:16PM 41.7386 -88.8603 275° West 369 425 32,000  Level Chicago Center
03:17PM 41.7475 -88.9992 274° West 369 425 32,000  Level Chicago Center
03:18PM 41.7542 -89.1328 275° West 369 425 32,000  Level Chicago Center
03:19PM 41.7628 -89.2664 276° West 369 425 32,000 -180 Level Chicago Center
03:20PM 41.7731 -89.4028 276° West 369 425 31,700 -660 Descending Chicago Center
03:21PM 41.7833 -89.5336 277° West 369 425 30,700 -1,080 Descending Chicago Center
03:22PM 41.7956 -89.6758 271° West 364 419 29,600 -1,020 Descending Chicago Center
03:23PM 41.7972 -89.7983 274° West 364 419 28,700 -960 Descending Chicago Center
03:24PM 41.8050 -89.9375 274° West 369 425 27,700 -960 Descending Chicago Center
03:25PM 41.8125 -90.0769 273° West 375 432 26,800 -1,140 Descending Chicago Center
03:26PM 41.8178 -90.2192 273° West 380 437 25,500 -1,440 Descending Chicago Center
03:27PM 41.8228 -90.3669 269° West 386 444 24,000 -1,500 Descending Chicago Center
03:28PM 41.8214 -90.5089 272° West 386 444 22,500 -1,500 Descending Chicago Center
03:29PM 41.8242 -90.6456 272° West 386 444 21,000 -1,560 Descending Chicago Center
03:30PM 41.8269 -90.7767 271° West 372 428 19,400 -1,740 Descending Chicago Center
03:31PM 41.8292 -90.9244 274° West 372 428 17,600 -1,740 Descending Chicago Center
03:32PM 41.8372 -91.0750 263° West 388 447 16,000 -1,560 Descending Chicago Center
03:33PM 41.8247 -91.2167 260° West 394 453 14,500 -1,620 Descending Chicago Center
03:34PM 41.8056 -91.3583 263° West 400 460 12,800 -1,800 Descending Chicago Center
03:35PM 41.7928 -91.4917 273° West 386 444 10,900 -1,440 Descending Chicago Center
03:36PM 41.7967 -91.6114 271° West 357 411 10,000 -1,440 Descending Chicago Center
03:37PM 41.7986 -91.7231 270° West 322 371 8,100 -2,400 Descending Chicago Center
03:38PM 41.7983 -91.8317 268° West 301 346 5,200 -2,400 Descending Chicago Center
03:39PM 41.7961 -91.9319 310° West 287 330 3,300 -1,320 Descending Chicago Center
03:40PM 41.8325 -91.9892 310° West 202 232 2,600 -720 Descending Chicago Center